createdAt,value
2023-02-27T00:02:15.545Z,1.60
2023-02-27T00:06:15.632Z,1.50
2023-02-27T00:10:15.732Z,1.42
2023-02-27T00:14:15.858Z,1.60
2023-02-27T00:18:15.936Z,1.90
2023-02-27T00:22:16.017Z,1.56
2023-02-27T00:26:16.106Z,1.64
2023-02-27T00:30:16.218Z,1.58
2023-02-27T00:34:16.329Z,1.50
2023-02-27T00:38:16.403Z,1.38
2023-02-27T00:42:16.532Z,1.23
2023-02-27T00:46:17.655Z,1.30
2023-02-27T00:50:16.818Z,1.49
2023-02-27T00:54:16.925Z,1.12
2023-02-27T00:58:17.140Z,1.18
2023-02-27T01:02:17.292Z,1.21
2023-02-27T01:06:17.345Z,1.45
2023-02-27T01:10:17.461Z,0.96
2023-02-27T01:14:17.658Z,1.04
2023-02-27T01:18:17.811Z,1.12
2023-02-27T01:22:17.965Z,1.14
2023-02-27T01:26:18.147Z,1.00
2023-02-27T01:30:18.385Z,1.06
2023-02-27T01:34:18.546Z,0.89
2023-02-27T01:38:18.743Z,0.85
2023-02-27T01:42:18.971Z,0.99
2023-02-27T01:46:19.170Z,0.83
2023-02-27T01:50:19.355Z,0.94
2023-02-27T01:54:19.570Z,0.70
2023-02-27T01:58:19.524Z,0.81
2023-02-27T02:02:19.537Z,0.74
2023-02-27T02:06:19.443Z,0.68
2023-02-27T02:10:19.393Z,0.70
2023-02-27T02:14:19.353Z,0.72
2023-02-27T02:18:19.336Z,0.78
2023-02-27T02:22:19.285Z,0.78
2023-02-27T02:26:19.227Z,0.91
2023-02-27T02:30:19.232Z,0.88
2023-02-27T02:34:19.186Z,0.88
2023-02-27T02:38:19.305Z,1.06
2023-02-27T02:42:19.548Z,0.95
2023-02-27T02:46:19.811Z,0.82
2023-02-27T02:50:19.996Z,0.89
2023-02-27T02:54:20.226Z,0.89
2023-02-27T02:58:20.409Z,1.00
2023-02-27T03:02:20.633Z,0.66
2023-02-27T03:06:20.591Z,0.69
2023-02-27T03:10:20.582Z,0.59
2023-02-27T03:14:20.527Z,0.65
2023-02-27T03:18:20.573Z,0.63
2023-02-27T03:22:20.473Z,0.55
2023-02-27T03:26:20.382Z,0.56
2023-02-27T03:30:20.399Z,0.67
2023-02-27T03:34:20.303Z,0.64
2023-02-27T03:38:20.305Z,0.64
2023-02-27T03:42:20.305Z,0.53
2023-02-27T03:46:20.370Z,0.53
2023-02-27T03:50:20.441Z,0.59
2023-02-27T03:54:20.579Z,0.55
2023-02-27T03:58:20.598Z,0.61
2023-02-27T04:02:20.672Z,0.53
2023-02-27T04:06:20.666Z,0.60
2023-02-27T04:10:20.649Z,0.59
2023-02-27T04:14:20.658Z,0.63
2023-02-27T04:18:20.782Z,0.67
2023-02-27T04:22:20.869Z,0.80
2023-02-27T04:26:21.007Z,0.69
2023-02-27T04:30:21.141Z,0.79
2023-02-27T04:34:21.262Z,0.60
2023-02-27T04:38:21.425Z,0.68
2023-02-27T04:42:21.626Z,0.66
2023-02-27T04:46:21.814Z,0.79
2023-02-27T04:50:22.006Z,0.73
2023-02-27T04:54:21.988Z,0.87
2023-02-27T04:58:23.799Z,0.77
2023-02-27T05:02:21.946Z,0.71
2023-02-27T05:06:21.891Z,0.69
2023-02-27T05:10:21.799Z,1.10
2023-02-27T05:14:21.813Z,1.03
2023-02-27T05:18:21.786Z,0.86
2023-02-27T05:22:21.718Z,0.84
2023-02-27T05:26:21.664Z,0.95
2023-02-27T05:30:21.656Z,0.78
2023-02-27T05:34:21.617Z,0.88
2023-02-27T05:38:21.569Z,0.82
2023-02-27T05:42:21.525Z,0.80
2023-02-27T05:46:21.485Z,0.85
2023-02-27T05:50:21.461Z,0.94
2023-02-27T05:54:21.439Z,0.79
2023-02-27T05:58:21.378Z,0.92
2023-02-27T06:02:21.409Z,0.73
2023-02-27T06:06:21.322Z,0.81
2023-02-27T06:10:21.249Z,0.88
2023-02-27T06:14:21.263Z,0.89
2023-02-27T06:18:21.182Z,0.92
2023-02-27T06:22:21.156Z,0.97
2023-02-27T06:26:21.154Z,0.98
2023-02-27T06:30:21.280Z,1.06
2023-02-27T06:34:21.359Z,1.09
2023-02-27T06:38:21.475Z,4.87
2023-02-27T06:42:21.574Z,8.86
2023-02-27T06:46:21.823Z,15.22
2023-02-27T06:50:21.762Z,25.81
2023-02-27T06:54:21.723Z,36.84
2023-02-27T06:58:21.601Z,49.65
2023-02-27T07:02:21.720Z,54.23
2023-02-27T07:06:21.509Z,53.83
2023-02-27T07:10:22.463Z,57.53
2023-02-27T07:14:21.760Z,59.07
2023-02-27T07:18:21.396Z,52.14
2023-02-27T07:22:21.362Z,52.95
2023-02-27T07:26:21.739Z,52.70
2023-02-27T07:30:21.453Z,52.30
2023-02-27T07:34:21.414Z,52.44
2023-02-27T07:38:21.393Z,52.16
2023-02-27T07:42:21.356Z,52.70
2023-02-27T07:46:21.757Z,52.87
2023-02-27T07:50:21.750Z,52.59
2023-02-27T07:54:21.223Z,79.83
2023-02-27T07:58:21.244Z,53.00
2023-02-27T08:02:21.198Z,49.56
2023-02-27T08:06:21.126Z,48.42
2023-02-27T08:10:21.097Z,44.17
2023-02-27T08:14:21.055Z,44.04
2023-02-27T08:18:21.018Z,41.29
2023-02-27T08:22:20.954Z,39.42
2023-02-27T08:26:21.143Z,37.01
2023-02-27T08:30:21.271Z,36.11
2023-02-27T08:34:21.112Z,34.20
2023-02-27T08:38:21.042Z,32.94
2023-02-27T08:42:21.019Z,31.82
2023-02-27T08:46:21.266Z,30.28
2023-02-27T08:50:21.262Z,29.42
2023-02-27T08:54:20.910Z,28.83
2023-02-27T08:58:21.268Z,28.19
2023-02-27T09:02:21.044Z,27.46
2023-02-27T09:06:21.263Z,27.08
2023-02-27T09:10:20.901Z,26.07
2023-02-27T09:14:20.844Z,26.15
2023-02-27T09:18:20.809Z,27.82
2023-02-27T09:22:20.763Z,27.74
2023-02-27T09:26:22.887Z,27.09
2023-02-27T09:30:21.750Z,26.54
2023-02-27T09:34:20.693Z,26.05
2023-02-27T09:38:20.616Z,25.35
2023-02-27T09:42:20.809Z,24.75
2023-02-27T09:46:20.809Z,24.30
2023-02-27T09:50:20.808Z,23.83
2023-02-27T09:54:20.466Z,23.56
2023-02-27T09:58:20.453Z,23.17
2023-02-27T10:02:20.848Z,22.14
2023-02-27T10:06:20.410Z,21.57
2023-02-27T10:10:20.351Z,21.19
2023-02-27T10:14:20.383Z,20.86
2023-02-27T10:18:27.615Z,20.34
2023-02-27T10:22:21.533Z,19.93
2023-02-27T10:26:20.618Z,19.82
2023-02-27T10:30:29.230Z,19.14
2023-02-27T10:34:21.819Z,18.67
2023-02-27T10:38:20.733Z,18.04
2023-02-27T10:42:20.877Z,12.24
2023-02-27T10:46:20.837Z,10.46
2023-02-27T10:50:20.800Z,12.13
2023-02-27T10:54:20.795Z,12.55
2023-02-27T10:58:20.716Z,14.11
2023-02-27T11:02:20.853Z,13.63
2023-02-27T11:06:20.726Z,13.73
2023-02-27T11:10:20.604Z,15.10
2023-02-27T11:14:20.825Z,16.44
2023-02-27T11:18:20.488Z,17.26
2023-02-27T11:22:20.451Z,18.09
2023-02-27T11:26:20.833Z,18.90
2023-02-27T11:30:20.391Z,19.37
2023-02-27T11:34:20.374Z,19.79
2023-02-27T11:38:20.969Z,19.93
2023-02-27T11:42:20.382Z,10.51
2023-02-27T11:46:46.572Z,17.37
2023-02-27T11:50:21.194Z,14.35
2023-02-27T11:54:20.246Z,14.31
2023-02-27T11:58:20.868Z,14.05
2023-02-27T12:02:20.852Z,14.44
2023-02-27T12:06:20.833Z,14.86
2023-02-27T12:10:20.636Z,15.00
2023-02-27T12:14:20.696Z,15.55
2023-02-27T12:18:20.728Z,15.55
2023-02-27T12:22:20.701Z,15.46
2023-02-27T12:26:20.876Z,15.73
2023-02-27T12:30:20.704Z,15.74
2023-02-27T12:34:20.826Z,15.72
2023-02-27T12:38:20.805Z,14.66
2023-02-27T12:42:20.857Z,13.83
2023-02-27T12:46:20.896Z,13.12
2023-02-27T12:50:21.023Z,12.41
2023-02-27T12:54:21.166Z,11.39
2023-02-27T12:58:21.377Z,11.36
2023-02-27T13:02:21.545Z,10.46
2023-02-27T13:06:21.701Z,10.48
2023-02-27T13:10:21.905Z,10.20
2023-02-27T13:14:21.865Z,9.42
2023-02-27T13:18:23.597Z,9.22
2023-02-27T13:22:21.800Z,8.68
2023-02-27T13:26:21.868Z,8.55
2023-02-27T13:30:21.826Z,8.32
2023-02-27T13:34:22.017Z,8.19
2023-02-27T13:38:21.987Z,7.97
2023-02-27T13:42:21.898Z,7.81
2023-02-27T13:46:22.008Z,7.58
2023-02-27T13:50:21.854Z,7.51
2023-02-27T13:54:21.852Z,7.25
2023-02-27T13:58:21.786Z,7.21
2023-02-27T14:02:21.788Z,7.11
2023-02-27T14:06:21.751Z,7.10
2023-02-27T14:10:21.673Z,6.88
2023-02-27T14:14:21.699Z,6.81
2023-02-27T14:18:33.756Z,6.79
2023-02-27T14:22:22.801Z,6.69
2023-02-27T14:26:21.777Z,6.64
2023-02-27T14:30:21.796Z,6.50
2023-02-27T14:34:21.902Z,7.12
2023-02-27T14:38:22.082Z,7.18
2023-02-27T14:42:22.281Z,7.05
2023-02-27T14:46:22.377Z,7.12
2023-02-27T14:50:22.529Z,6.89
2023-02-27T14:54:22.625Z,6.88
2023-02-27T14:58:22.772Z,6.80
2023-02-27T15:02:22.906Z,6.67
2023-02-27T15:06:23.052Z,6.39
2023-02-27T15:10:23.400Z,6.53
2023-02-27T15:14:23.410Z,6.45
2023-02-27T15:18:23.370Z,6.09
2023-02-27T15:22:38.038Z,6.57
2023-02-27T15:26:24.561Z,6.69
2023-02-27T15:30:23.758Z,6.80
2023-02-27T15:34:23.942Z,6.85
2023-02-27T15:38:24.137Z,6.79
2023-02-27T15:42:24.099Z,6.76
2023-02-27T15:46:24.095Z,6.75
2023-02-27T15:50:24.027Z,6.82
2023-02-27T15:54:23.991Z,6.65
2023-02-27T15:58:23.967Z,6.51
2023-02-27T16:02:23.987Z,6.46
2023-02-27T16:06:23.933Z,6.47
2023-02-27T16:10:23.945Z,6.30
2023-02-27T16:14:26.449Z,6.10
2023-02-27T16:18:23.757Z,6.07
2023-02-27T16:22:23.732Z,5.99
2023-02-27T16:26:23.685Z,6.15
2023-02-27T16:30:23.643Z,6.13
2023-02-27T16:34:26.052Z,6.09
2023-02-27T16:38:23.557Z,6.39
2023-02-27T16:42:23.540Z,6.47
2023-02-27T16:46:23.516Z,6.36
2023-02-27T16:50:23.470Z,6.24
2023-02-27T16:54:23.420Z,6.06
2023-02-27T16:58:23.376Z,5.96
2023-02-27T17:02:23.344Z,5.93
2023-02-27T17:06:23.311Z,5.83
2023-02-27T17:10:23.436Z,5.76
2023-02-27T17:14:23.237Z,5.56
2023-02-27T17:18:23.213Z,5.52
2023-02-27T17:22:23.180Z,5.52
2023-02-27T17:26:23.121Z,5.49
2023-02-27T17:30:23.086Z,5.39
2023-02-27T17:34:23.095Z,5.25
2023-02-27T17:38:23.026Z,5.34
2023-02-27T17:42:22.992Z,5.19
2023-02-27T17:46:22.967Z,5.06
2023-02-27T17:50:22.888Z,4.90
2023-02-27T17:54:22.893Z,4.73
2023-02-27T17:58:22.822Z,4.75
2023-02-27T18:02:22.826Z,4.74
2023-02-27T18:06:22.826Z,4.67
2023-02-27T18:10:22.733Z,4.67
2023-02-27T18:14:22.711Z,4.66
2023-02-27T18:18:22.680Z,4.57
2023-02-27T18:22:22.753Z,4.49
2023-02-27T18:26:30.002Z,4.45
2023-02-27T18:30:23.883Z,4.39
2023-02-27T18:34:22.837Z,4.27
2023-02-27T18:38:22.909Z,4.22
2023-02-27T18:42:23.103Z,4.26
2023-02-27T18:46:23.110Z,4.05
2023-02-27T18:50:23.022Z,3.68
2023-02-27T18:54:22.995Z,3.56
2023-02-27T18:58:22.976Z,3.41
2023-02-27T19:02:22.924Z,3.34
2023-02-27T19:06:22.877Z,3.19
2023-02-27T19:10:22.847Z,3.04
2023-02-27T19:14:22.790Z,2.99
2023-02-27T19:18:22.793Z,2.91
2023-02-27T19:22:22.747Z,2.85
2023-02-27T19:26:22.921Z,2.75
2023-02-27T19:30:23.145Z,2.69
2023-02-27T19:34:23.310Z,2.63
2023-02-27T19:38:23.283Z,2.56
2023-02-27T19:42:23.258Z,2.50
2023-02-27T19:46:23.270Z,2.45
2023-02-27T19:50:23.190Z,2.45
2023-02-27T19:54:23.154Z,2.37
2023-02-27T19:58:23.118Z,2.33
2023-02-27T20:02:23.087Z,2.29
2023-02-27T20:06:23.038Z,2.30
2023-02-27T20:10:22.989Z,2.20
2023-02-27T20:14:22.961Z,2.17
2023-02-27T20:18:22.937Z,2.12
2023-02-27T20:22:22.864Z,2.09
2023-02-27T20:26:22.821Z,2.00
2023-02-27T20:30:22.784Z,2.04
2023-02-27T20:34:22.818Z,1.99
2023-02-27T20:38:22.764Z,1.98
2023-02-27T20:42:22.671Z,1.96
2023-02-27T20:46:22.634Z,1.93
2023-02-27T20:50:22.611Z,1.88
2023-02-27T20:54:22.613Z,1.87
2023-02-27T20:58:22.559Z,1.82
2023-02-27T21:02:22.514Z,1.82
2023-02-27T21:06:22.502Z,1.80
2023-02-27T21:10:22.445Z,1.80
2023-02-27T21:14:22.451Z,1.79
2023-02-27T21:18:22.355Z,1.72
2023-02-27T21:22:22.328Z,1.71
2023-02-27T21:26:22.264Z,1.68
2023-02-27T21:30:22.228Z,1.67
2023-02-27T21:34:22.215Z,1.66
2023-02-27T21:38:22.186Z,1.61
2023-02-27T21:42:22.183Z,1.59
2023-02-27T21:46:22.191Z,1.59
2023-02-27T21:50:22.223Z,1.59
2023-02-27T21:54:22.244Z,1.56
2023-02-27T21:58:22.282Z,1.53
2023-02-27T22:02:22.362Z,1.51
2023-02-27T22:06:22.315Z,1.50
2023-02-27T22:10:22.349Z,1.46
2023-02-27T22:14:22.378Z,1.43
2023-02-27T22:18:22.420Z,1.45
2023-02-27T22:22:22.439Z,1.43
2023-02-27T22:26:22.479Z,1.39
2023-02-27T22:30:22.508Z,1.41
2023-02-27T22:34:22.536Z,1.40
2023-02-27T22:38:22.625Z,1.41
2023-02-27T22:42:22.643Z,1.37
2023-02-27T22:46:22.696Z,1.34
2023-02-27T22:50:22.751Z,1.33
2023-02-27T22:54:22.827Z,1.32
2023-02-27T22:58:22.887Z,1.34
2023-02-27T23:02:23.064Z,1.35
2023-02-27T23:06:23.210Z,1.30
2023-02-27T23:10:23.429Z,1.29
2023-02-27T23:14:23.518Z,1.25
2023-02-27T23:18:23.591Z,1.23
2023-02-27T23:22:23.821Z,1.25
2023-02-27T23:26:23.878Z,1.23
2023-02-27T23:30:24.040Z,1.24
2023-02-27T23:34:24.158Z,1.20
2023-02-27T23:38:24.325Z,1.18
2023-02-27T23:42:24.417Z,1.21
2023-02-27T23:46:24.500Z,1.17
2023-02-27T23:50:24.485Z,1.17
2023-02-27T23:54:24.500Z,1.14
2023-02-27T23:58:24.480Z,1.16
